sensor_id;sensor_type;location;lat;lon;timestamp;P1;durP1;ratioP1;P2;durP2;ratioP2
43998;SDS011;51319;52.162;5.302;2023-09-08T00:00:51;13.00;;;9.80;;
43998;SDS011;51319;52.162;5.302;2023-09-08T00:03:18;12.40;;;9.50;;
43998;SDS011;51319;52.162;5.302;2023-09-08T00:05:48;13.65;;;11.25;;
43998;SDS011;51319;52.162;5.302;2023-09-08T00:08:15;11.35;;;9.63;;
43998;SDS011;51319;52.162;5.302;2023-09-08T00:10:42;21.40;;;15.35;;
43998;SDS011;51319;52.162;5.302;2023-09-08T00:13:10;15.52;;;10.52;;
43998;SDS011;51319;52.162;5.302;2023-09-08T00:15:37;13.35;;;9.50;;
43998;SDS011;51319;52.162;5.302;2023-09-08T00:18:04;16.75;;;9.52;;
43998;SDS011;51319;52.162;5.302;2023-09-08T00:20:31;11.10;;;9.05;;
43998;SDS011;51319;52.162;5.302;2023-09-08T00:22:58;13.73;;;9.38;;
43998;SDS011;51319;52.162;5.302;2023-09-08T00:25:26;12.15;;;9.05;;
43998;SDS011;51319;52.162;5.302;2023-09-08T00:27:53;9.95;;;8.73;;
43998;SDS011;51319;52.162;5.302;2023-09-08T00:30:20;10.15;;;9.10;;
43998;SDS011;51319;52.162;5.302;2023-09-08T00:32:47;11.27;;;8.77;;
43998;SDS011;51319;52.162;5.302;2023-09-08T00:35:14;9.85;;;8.88;;
43998;SDS011;51319;52.162;5.302;2023-09-08T00:37:41;10.27;;;9.10;;
43998;SDS011;51319;52.162;5.302;2023-09-08T00:40:09;16.35;;;9.65;;
43998;SDS011;51319;52.162;5.302;2023-09-08T00:42:36;13.70;;;9.77;;
43998;SDS011;51319;52.162;5.302;2023-09-08T00:45:04;14.48;;;9.57;;
43998;SDS011;51319;52.162;5.302;2023-09-08T00:47:31;11.13;;;10.13;;
43998;SDS011;51319;52.162;5.302;2023-09-08T00:50:00;11.02;;;9.18;;
43998;SDS011;51319;52.162;5.302;2023-09-08T00:52:32;11.05;;;9.32;;
43998;SDS011;51319;52.162;5.302;2023-09-08T00:55:00;10.52;;;8.88;;
43998;SDS011;51319;52.162;5.302;2023-09-08T00:57:29;13.57;;;9.40;;
43998;SDS011;51319;52.162;5.302;2023-09-08T00:59:57;9.85;;;8.60;;
43998;SDS011;51319;52.162;5.302;2023-09-08T01:02:24;12.98;;;9.38;;
43998;SDS011;51319;52.162;5.302;2023-09-08T01:04:51;13.27;;;8.60;;
43998;SDS011;51319;52.162;5.302;2023-09-08T01:07:18;14.18;;;9.52;;
43998;SDS011;51319;52.162;5.302;2023-09-08T01:09:46;10.77;;;9.02;;
43998;SDS011;51319;52.162;5.302;2023-09-08T01:12:15;13.20;;;9.07;;
43998;SDS011;51319;52.162;5.302;2023-09-08T01:14:42;12.85;;;9.20;;
43998;SDS011;51319;52.162;5.302;2023-09-08T01:17:09;13.05;;;9.07;;
43998;SDS011;51319;52.162;5.302;2023-09-08T01:19:38;10.73;;;9.45;;
43998;SDS011;51319;52.162;5.302;2023-09-08T01:24:40;11.85;;;10.07;;
43998;SDS011;51319;52.162;5.302;2023-09-08T01:27:19;12.55;;;9.55;;
43998;SDS011;51319;52.162;5.302;2023-09-08T01:29:49;12.93;;;9.50;;
43998;SDS011;51319;52.162;5.302;2023-09-08T01:32:18;15.15;;;8.95;;
43998;SDS011;51319;52.162;5.302;2023-09-08T01:34:46;16.55;;;9.63;;
43998;SDS011;51319;52.162;5.302;2023-09-08T01:37:13;12.02;;;9.73;;
43998;SDS011;51319;52.162;5.302;2023-09-08T01:39:40;11.50;;;9.18;;
43998;SDS011;51319;52.162;5.302;2023-09-08T01:42:07;12.05;;;9.27;;
43998;SDS011;51319;52.162;5.302;2023-09-08T01:44:36;11.73;;;9.73;;
43998;SDS011;51319;52.162;5.302;2023-09-08T01:47:03;10.40;;;9.02;;
43998;SDS011;51319;52.162;5.302;2023-09-08T01:49:30;11.00;;;8.70;;
43998;SDS011;51319;52.162;5.302;2023-09-08T01:51:57;13.45;;;9.10;;
43998;SDS011;51319;52.162;5.302;2023-09-08T01:54:24;11.70;;;8.95;;
43998;SDS011;51319;52.162;5.302;2023-09-08T01:56:51;11.45;;;9.10;;
43998;SDS011;51319;52.162;5.302;2023-09-08T01:59:18;10.40;;;9.20;;
43998;SDS011;51319;52.162;5.302;2023-09-08T02:01:45;11.25;;;9.55;;
43998;SDS011;51319;52.162;5.302;2023-09-08T02:04:12;15.50;;;10.18;;
43998;SDS011;51319;52.162;5.302;2023-09-08T02:06:40;14.30;;;9.63;;
43998;SDS011;51319;52.162;5.302;2023-09-08T02:09:07;11.45;;;10.02;;
43998;SDS011;51319;52.162;5.302;2023-09-08T02:11:40;10.48;;;9.25;;
43998;SDS011;51319;52.162;5.302;2023-09-08T02:14:08;12.30;;;9.18;;
43998;SDS011;51319;52.162;5.302;2023-09-08T02:16:35;13.48;;;10.25;;
43998;SDS011;51319;52.162;5.302;2023-09-08T02:19:05;13.15;;;9.23;;
43998;SDS011;51319;52.162;5.302;2023-09-08T02:21:33;13.57;;;9.63;;
43998;SDS011;51319;52.162;5.302;2023-09-08T02:24:00;12.30;;;10.27;;
43998;SDS011;51319;52.162;5.302;2023-09-08T02:26:27;13.65;;;10.55;;
43998;SDS011;51319;52.162;5.302;2023-09-08T02:28:55;16.23;;;12.30;;
43998;SDS011;51319;52.162;5.302;2023-09-08T02:31:23;11.88;;;9.18;;
43998;SDS011;51319;52.162;5.302;2023-09-08T02:33:51;15.10;;;10.35;;
43998;SDS011;51319;52.162;5.302;2023-09-08T02:36:20;11.07;;;9.37;;
43998;SDS011;51319;52.162;5.302;2023-09-08T02:41:19;11.40;;;9.45;;
43998;SDS011;51319;52.162;5.302;2023-09-08T02:43:46;12.82;;;9.38;;
43998;SDS011;51319;52.162;5.302;2023-09-08T02:46:14;15.30;;;10.20;;
43998;SDS011;51319;52.162;5.302;2023-09-08T02:48:41;15.00;;;10.02;;
43998;SDS011;51319;52.162;5.302;2023-09-08T02:51:08;17.20;;;9.93;;
43998;SDS011;51319;52.162;5.302;2023-09-08T02:53:35;16.85;;;10.52;;
43998;SDS011;51319;52.162;5.302;2023-09-08T02:56:02;14.63;;;9.73;;
43998;SDS011;51319;52.162;5.302;2023-09-08T02:58:32;15.43;;;10.57;;
43998;SDS011;51319;52.162;5.302;2023-09-08T03:01:16;10.73;;;9.57;;
43998;SDS011;51319;52.162;5.302;2023-09-08T03:03:45;11.75;;;9.85;;
43998;SDS011;51319;52.162;5.302;2023-09-08T03:06:14;13.00;;;10.50;;
43998;SDS011;51319;52.162;5.302;2023-09-08T03:08:42;11.60;;;10.40;;
43998;SDS011;51319;52.162;5.302;2023-09-08T03:11:09;12.45;;;10.15;;
43998;SDS011;51319;52.162;5.302;2023-09-08T03:13:36;11.80;;;10.43;;
43998;SDS011;51319;52.162;5.302;2023-09-08T03:16:06;15.02;;;10.85;;
43998;SDS011;51319;52.162;5.302;2023-09-08T03:18:35;14.02;;;11.02;;
43998;SDS011;51319;52.162;5.302;2023-09-08T03:21:04;13.52;;;10.25;;
43998;SDS011;51319;52.162;5.302;2023-09-08T03:23:39;11.45;;;10.18;;
43998;SDS011;51319;52.162;5.302;2023-09-08T03:26:09;15.27;;;10.20;;
43998;SDS011;51319;52.162;5.302;2023-09-08T03:28:38;13.60;;;10.65;;
43998;SDS011;51319;52.162;5.302;2023-09-08T03:31:05;14.45;;;10.70;;
43998;SDS011;51319;52.162;5.302;2023-09-08T03:33:33;16.33;;;11.05;;
43998;SDS011;51319;52.162;5.302;2023-09-08T03:36:00;13.68;;;10.45;;
43998;SDS011;51319;52.162;5.302;2023-09-08T03:38:27;12.32;;;10.45;;
43998;SDS011;51319;52.162;5.302;2023-09-08T03:40:54;13.02;;;10.48;;
43998;SDS011;51319;52.162;5.302;2023-09-08T03:43:22;15.40;;;10.75;;
43998;SDS011;51319;52.162;5.302;2023-09-08T03:45:49;13.10;;;10.77;;
43998;SDS011;51319;52.162;5.302;2023-09-08T03:48:16;12.68;;;11.38;;
43998;SDS011;51319;52.162;5.302;2023-09-08T03:50:43;13.80;;;10.73;;
43998;SDS011;51319;52.162;5.302;2023-09-08T03:53:12;11.82;;;10.52;;
43998;SDS011;51319;52.162;5.302;2023-09-08T03:55:40;12.13;;;10.23;;
43998;SDS011;51319;52.162;5.302;2023-09-08T03:58:08;12.25;;;10.98;;
43998;SDS011;51319;52.162;5.302;2023-09-08T04:00:35;12.52;;;11.07;;
43998;SDS011;51319;52.162;5.302;2023-09-08T04:03:03;11.50;;;10.32;;
43998;SDS011;51319;52.162;5.302;2023-09-08T04:05:30;14.68;;;10.82;;
43998;SDS011;51319;52.162;5.302;2023-09-08T04:07:57;17.15;;;10.68;;
43998;SDS011;51319;52.162;5.302;2023-09-08T04:10:24;12.13;;;10.63;;
43998;SDS011;51319;52.162;5.302;2023-09-08T04:12:51;13.30;;;10.55;;
43998;SDS011;51319;52.162;5.302;2023-09-08T04:15:18;16.65;;;11.32;;
43998;SDS011;51319;52.162;5.302;2023-09-08T04:17:46;14.43;;;10.95;;
43998;SDS011;51319;52.162;5.302;2023-09-08T04:20:13;15.88;;;11.00;;
43998;SDS011;51319;52.162;5.302;2023-09-08T04:22:43;14.48;;;10.60;;
43998;SDS011;51319;52.162;5.302;2023-09-08T04:25:10;17.80;;;11.57;;
43998;SDS011;51319;52.162;5.302;2023-09-08T04:27:37;16.90;;;11.35;;
43998;SDS011;51319;52.162;5.302;2023-09-08T04:30:05;13.23;;;11.52;;
43998;SDS011;51319;52.162;5.302;2023-09-08T04:32:33;20.00;;;11.52;;
43998;SDS011;51319;52.162;5.302;2023-09-08T04:35:00;13.32;;;11.57;;
43998;SDS011;51319;52.162;5.302;2023-09-08T04:37:27;13.07;;;11.63;;
43998;SDS011;51319;52.162;5.302;2023-09-08T04:39:56;14.30;;;11.45;;
43998;SDS011;51319;52.162;5.302;2023-09-08T04:42:23;14.10;;;11.30;;
43998;SDS011;51319;52.162;5.302;2023-09-08T04:44:50;14.07;;;12.05;;
43998;SDS011;51319;52.162;5.302;2023-09-08T04:47:17;16.52;;;11.95;;
43998;SDS011;51319;52.162;5.302;2023-09-08T04:49:44;13.80;;;10.55;;
43998;SDS011;51319;52.162;5.302;2023-09-08T04:52:11;14.25;;;11.75;;
43998;SDS011;51319;52.162;5.302;2023-09-08T04:54:41;17.05;;;12.25;;
43998;SDS011;51319;52.162;5.302;2023-09-08T04:57:08;17.42;;;12.45;;
43998;SDS011;51319;52.162;5.302;2023-09-08T04:59:48;20.40;;;11.88;;
43998;SDS011;51319;52.162;5.302;2023-09-08T05:02:16;16.50;;;12.82;;
43998;SDS011;51319;52.162;5.302;2023-09-08T05:04:45;13.82;;;11.55;;
43998;SDS011;51319;52.162;5.302;2023-09-08T05:07:12;14.38;;;11.55;;
43998;SDS011;51319;52.162;5.302;2023-09-08T05:09:40;14.82;;;12.13;;
43998;SDS011;51319;52.162;5.302;2023-09-08T05:12:07;13.93;;;11.65;;
43998;SDS011;51319;52.162;5.302;2023-09-08T05:14:33;15.60;;;13.10;;
43998;SDS011;51319;52.162;5.302;2023-09-08T05:17:02;16.95;;;12.40;;
43998;SDS011;51319;52.162;5.302;2023-09-08T05:19:29;16.63;;;12.68;;
43998;SDS011;51319;52.162;5.302;2023-09-08T05:21:56;16.17;;;13.07;;
43998;SDS011;51319;52.162;5.302;2023-09-08T05:24:23;17.13;;;12.48;;
43998;SDS011;51319;52.162;5.302;2023-09-08T05:26:52;15.27;;;12.27;;
43998;SDS011;51319;52.162;5.302;2023-09-08T05:29:19;16.98;;;12.50;;
43998;SDS011;51319;52.162;5.302;2023-09-08T05:31:46;14.90;;;12.02;;
43998;SDS011;51319;52.162;5.302;2023-09-08T05:34:13;14.43;;;11.77;;
43998;SDS011;51319;52.162;5.302;2023-09-08T05:36:41;19.88;;;15.15;;
43998;SDS011;51319;52.162;5.302;2023-09-08T05:39:09;14.27;;;11.27;;
43998;SDS011;51319;52.162;5.302;2023-09-08T05:41:36;19.80;;;11.18;;
43998;SDS011;51319;52.162;5.302;2023-09-08T05:44:03;13.57;;;10.68;;
43998;SDS011;51319;52.162;5.302;2023-09-08T05:46:30;16.63;;;11.43;;
43998;SDS011;51319;52.162;5.302;2023-09-08T05:48:58;13.82;;;11.10;;
43998;SDS011;51319;52.162;5.302;2023-09-08T05:51:43;12.75;;;11.30;;
43998;SDS011;51319;52.162;5.302;2023-09-08T05:54:11;15.13;;;10.23;;
43998;SDS011;51319;52.162;5.302;2023-09-08T05:56:40;12.73;;;10.68;;
43998;SDS011;51319;52.162;5.302;2023-09-08T05:59:07;16.48;;;11.40;;
43998;SDS011;51319;52.162;5.302;2023-09-08T06:01:34;14.68;;;10.77;;
43998;SDS011;51319;52.162;5.302;2023-09-08T06:04:03;13.15;;;10.68;;
43998;SDS011;51319;52.162;5.302;2023-09-08T06:06:32;16.73;;;10.88;;
43998;SDS011;51319;52.162;5.302;2023-09-08T06:08:59;15.60;;;10.77;;
43998;SDS011;51319;52.162;5.302;2023-09-08T06:11:26;17.05;;;12.43;;
43998;SDS011;51319;52.162;5.302;2023-09-08T06:13:53;15.18;;;9.70;;
43998;SDS011;51319;52.162;5.302;2023-09-08T06:16:29;15.95;;;11.23;;
43998;SDS011;51319;52.162;5.302;2023-09-08T06:19:01;15.32;;;10.63;;
43998;SDS011;51319;52.162;5.302;2023-09-08T06:21:30;15.13;;;10.73;;
43998;SDS011;51319;52.162;5.302;2023-09-08T06:23:57;13.82;;;11.43;;
43998;SDS011;51319;52.162;5.302;2023-09-08T06:26:24;16.65;;;11.05;;
43998;SDS011;51319;52.162;5.302;2023-09-08T06:28:55;19.88;;;12.05;;
43998;SDS011;51319;52.162;5.302;2023-09-08T06:31:22;13.70;;;12.05;;
43998;SDS011;51319;52.162;5.302;2023-09-08T06:33:49;15.65;;;10.77;;
43998;SDS011;51319;52.162;5.302;2023-09-08T06:36:21;14.70;;;10.32;;
43998;SDS011;51319;52.162;5.302;2023-09-08T06:38:48;12.93;;;10.13;;
43998;SDS011;51319;52.162;5.302;2023-09-08T06:41:15;15.07;;;9.77;;
43998;SDS011;51319;52.162;5.302;2023-09-08T06:43:44;13.52;;;10.18;;
43998;SDS011;51319;52.162;5.302;2023-09-08T06:46:11;14.80;;;8.93;;
43998;SDS011;51319;52.162;5.302;2023-09-08T06:48:40;14.70;;;10.48;;
43998;SDS011;51319;52.162;5.302;2023-09-08T06:51:08;11.68;;;8.43;;
43998;SDS011;51319;52.162;5.302;2023-09-08T06:53:36;13.40;;;8.18;;
43998;SDS011;51319;52.162;5.302;2023-09-08T06:56:17;16.25;;;8.68;;
43998;SDS011;51319;52.162;5.302;2023-09-08T06:58:45;15.85;;;7.80;;
43998;SDS011;51319;52.162;5.302;2023-09-08T07:01:14;13.75;;;7.10;;
43998;SDS011;51319;52.162;5.302;2023-09-08T07:03:43;12.52;;;7.80;;
43998;SDS011;51319;52.162;5.302;2023-09-08T07:06:10;7.97;;;6.85;;
43998;SDS011;51319;52.162;5.302;2023-09-08T07:08:38;9.05;;;6.60;;
43998;SDS011;51319;52.162;5.302;2023-09-08T07:11:08;10.53;;;7.40;;
43998;SDS011;51319;52.162;5.302;2023-09-08T07:13:36;11.82;;;6.70;;
43998;SDS011;51319;52.162;5.302;2023-09-08T07:16:06;9.73;;;6.82;;
43998;SDS011;51319;52.162;5.302;2023-09-08T07:18:33;9.73;;;6.60;;
43998;SDS011;51319;52.162;5.302;2023-09-08T07:21:03;10.00;;;6.40;;
43998;SDS011;51319;52.162;5.302;2023-09-08T07:23:30;11.13;;;6.25;;
43998;SDS011;51319;52.162;5.302;2023-09-08T07:25:58;9.93;;;5.95;;
43998;SDS011;51319;52.162;5.302;2023-09-08T07:28:25;16.65;;;6.03;;
43998;SDS011;51319;52.162;5.302;2023-09-08T07:30:52;8.10;;;5.80;;
43998;SDS011;51319;52.162;5.302;2023-09-08T07:33:19;10.90;;;5.78;;
43998;SDS011;51319;52.162;5.302;2023-09-08T07:35:48;9.40;;;5.68;;
43998;SDS011;51319;52.162;5.302;2023-09-08T07:38:16;5.68;;;5.07;;
43998;SDS011;51319;52.162;5.302;2023-09-08T07:40:44;8.05;;;5.78;;
43998;SDS011;51319;52.162;5.302;2023-09-08T07:43:11;9.50;;;5.18;;
43998;SDS011;51319;52.162;5.302;2023-09-08T07:45:38;8.48;;;4.68;;
43998;SDS011;51319;52.162;5.302;2023-09-08T07:48:06;7.97;;;5.05;;
43998;SDS011;51319;52.162;5.302;2023-09-08T07:50:33;9.77;;;4.65;;
43998;SDS011;51319;52.162;5.302;2023-09-08T07:53:00;8.05;;;5.22;;
43998;SDS011;51319;52.162;5.302;2023-09-08T07:55:27;5.10;;;4.60;;
43998;SDS011;51319;52.162;5.302;2023-09-08T07:57:55;5.70;;;4.57;;
43998;SDS011;51319;52.162;5.302;2023-09-08T08:00:25;6.50;;;4.45;;
43998;SDS011;51319;52.162;5.302;2023-09-08T08:02:56;6.82;;;4.85;;
43998;SDS011;51319;52.162;5.302;2023-09-08T08:05:24;6.90;;;4.90;;
43998;SDS011;51319;52.162;5.302;2023-09-08T08:07:52;6.93;;;4.88;;
43998;SDS011;51319;52.162;5.302;2023-09-08T08:10:19;5.78;;;4.32;;
43998;SDS011;51319;52.162;5.302;2023-09-08T08:12:46;5.90;;;4.47;;
43998;SDS011;51319;52.162;5.302;2023-09-08T08:15:13;7.03;;;4.63;;
43998;SDS011;51319;52.162;5.302;2023-09-08T08:17:43;6.05;;;4.50;;
43998;SDS011;51319;52.162;5.302;2023-09-08T08:20:11;11.57;;;6.78;;
43998;SDS011;51319;52.162;5.302;2023-09-08T08:22:46;9.82;;;4.40;;
43998;SDS011;51319;52.162;5.302;2023-09-08T08:25:14;4.63;;;4.18;;
43998;SDS011;51319;52.162;5.302;2023-09-08T08:27:42;11.07;;;4.22;;
43998;SDS011;51319;52.162;5.302;2023-09-08T08:30:09;9.88;;;4.10;;
43998;SDS011;51319;52.162;5.302;2023-09-08T08:32:37;7.45;;;4.20;;
43998;SDS011;51319;52.162;5.302;2023-09-08T08:35:05;4.05;;;3.67;;
43998;SDS011;51319;52.162;5.302;2023-09-08T08:37:33;6.75;;;3.60;;
43998;SDS011;51319;52.162;5.302;2023-09-08T08:40:00;4.18;;;3.83;;
43998;SDS011;51319;52.162;5.302;2023-09-08T08:42:32;7.18;;;3.92;;
43998;SDS011;51319;52.162;5.302;2023-09-08T08:45:00;5.13;;;3.88;;
43998;SDS011;51319;52.162;5.302;2023-09-08T08:47:27;8.23;;;4.00;;
43998;SDS011;51319;52.162;5.302;2023-09-08T08:49:58;6.57;;;3.50;;
43998;SDS011;51319;52.162;5.302;2023-09-08T08:52:27;7.57;;;3.85;;
43998;SDS011;51319;52.162;5.302;2023-09-08T08:54:55;8.98;;;3.78;;
43998;SDS011;51319;52.162;5.302;2023-09-08T08:57:23;6.38;;;3.72;;
43998;SDS011;51319;52.162;5.302;2023-09-08T08:59:54;6.38;;;3.50;;
43998;SDS011;51319;52.162;5.302;2023-09-08T09:02:21;10.27;;;3.70;;
43998;SDS011;51319;52.162;5.302;2023-09-08T09:04:53;4.72;;;3.97;;
43998;SDS011;51319;52.162;5.302;2023-09-08T09:07:20;9.63;;;3.60;;
43998;SDS011;51319;52.162;5.302;2023-09-08T09:09:47;6.47;;;3.88;;
43998;SDS011;51319;52.162;5.302;2023-09-08T09:12:16;5.47;;;3.38;;
43998;SDS011;51319;52.162;5.302;2023-09-08T09:14:45;6.13;;;3.80;;
43998;SDS011;51319;52.162;5.302;2023-09-08T09:17:14;6.43;;;3.77;;
43998;SDS011;51319;52.162;5.302;2023-09-08T09:19:43;7.45;;;3.45;;
43998;SDS011;51319;52.162;5.302;2023-09-08T09:22:11;10.35;;;3.63;;
43998;SDS011;51319;52.162;5.302;2023-09-08T09:24:39;7.75;;;4.20;;
43998;SDS011;51319;52.162;5.302;2023-09-08T09:27:10;10.43;;;3.38;;
43998;SDS011;51319;52.162;5.302;2023-09-08T09:29:45;12.35;;;3.40;;
43998;SDS011;51319;52.162;5.302;2023-09-08T09:32:14;16.70;;;3.45;;
43998;SDS011;51319;52.162;5.302;2023-09-08T09:34:49;10.30;;;3.65;;
43998;SDS011;51319;52.162;5.302;2023-09-08T09:37:18;6.28;;;3.47;;
43998;SDS011;51319;52.162;5.302;2023-09-08T09:39:49;9.68;;;3.80;;
43998;SDS011;51319;52.162;5.302;2023-09-08T09:44:52;5.88;;;3.85;;
43998;SDS011;51319;52.162;5.302;2023-09-08T09:47:20;6.07;;;3.70;;
43998;SDS011;51319;52.162;5.302;2023-09-08T09:55:08;7.65;;;3.08;;
43998;SDS011;51319;52.162;5.302;2023-09-08T10:00:27;10.07;;;3.13;;
43998;SDS011;51319;52.162;5.302;2023-09-08T10:02:55;5.90;;;3.30;;
43998;SDS011;51319;52.162;5.302;2023-09-08T10:05:23;5.32;;;2.63;;
43998;SDS011;51319;52.162;5.302;2023-09-08T10:07:51;7.53;;;3.40;;
43998;SDS011;51319;52.162;5.302;2023-09-08T10:10:19;9.82;;;2.75;;
43998;SDS011;51319;52.162;5.302;2023-09-08T10:12:55;5.18;;;2.97;;
43998;SDS011;51319;52.162;5.302;2023-09-08T10:15:25;5.82;;;3.53;;
43998;SDS011;51319;52.162;5.302;2023-09-08T10:17:55;8.43;;;3.00;;
43998;SDS011;51319;52.162;5.302;2023-09-08T10:20:24;7.07;;;2.97;;
43998;SDS011;51319;52.162;5.302;2023-09-08T10:22:56;5.35;;;3.03;;
43998;SDS011;51319;52.162;5.302;2023-09-08T10:25:29;6.55;;;3.10;;
43998;SDS011;51319;52.162;5.302;2023-09-08T10:28:01;6.43;;;3.45;;
43998;SDS011;51319;52.162;5.302;2023-09-08T10:30:30;9.23;;;2.90;;
43998;SDS011;51319;52.162;5.302;2023-09-08T10:32:58;6.00;;;2.78;;
43998;SDS011;51319;52.162;5.302;2023-09-08T10:35:28;5.20;;;2.90;;
43998;SDS011;51319;52.162;5.302;2023-09-08T10:44:02;4.00;;;2.72;;
43998;SDS011;51319;52.162;5.302;2023-09-08T10:46:34;6.13;;;3.20;;
43998;SDS011;51319;52.162;5.302;2023-09-08T10:49:04;3.55;;;2.97;;
43998;SDS011;51319;52.162;5.302;2023-09-08T10:51:33;8.35;;;2.97;;
43998;SDS011;51319;52.162;5.302;2023-09-08T10:54:02;5.80;;;2.63;;
43998;SDS011;51319;52.162;5.302;2023-09-08T10:59:29;7.72;;;2.70;;
43998;SDS011;51319;52.162;5.302;2023-09-08T11:02:04;5.80;;;3.13;;
43998;SDS011;51319;52.162;5.302;2023-09-08T11:04:32;5.10;;;3.20;;
43998;SDS011;51319;52.162;5.302;2023-09-08T11:07:06;6.38;;;2.58;;
43998;SDS011;51319;52.162;5.302;2023-09-08T11:09:37;7.22;;;2.90;;
43998;SDS011;51319;52.162;5.302;2023-09-08T11:12:04;5.93;;;2.63;;
43998;SDS011;51319;52.162;5.302;2023-09-08T11:14:34;5.75;;;2.70;;
43998;SDS011;51319;52.162;5.302;2023-09-08T11:17:04;5.10;;;3.08;;
43998;SDS011;51319;52.162;5.302;2023-09-08T11:19:45;9.38;;;2.70;;
43998;SDS011;51319;52.162;5.302;2023-09-08T11:22:16;7.50;;;2.95;;
43998;SDS011;51319;52.162;5.302;2023-09-08T11:24:43;6.05;;;2.80;;
43998;SDS011;51319;52.162;5.302;2023-09-08T11:27:11;3.67;;;3.13;;
43998;SDS011;51319;52.162;5.302;2023-09-08T11:29:38;3.08;;;2.58;;
43998;SDS011;51319;52.162;5.302;2023-09-08T11:32:08;5.15;;;2.72;;
43998;SDS011;51319;52.162;5.302;2023-09-08T11:34:36;3.67;;;2.63;;
43998;SDS011;51319;52.162;5.302;2023-09-08T11:37:10;5.88;;;2.17;;
43998;SDS011;51319;52.162;5.302;2023-09-08T11:39:39;4.63;;;2.50;;
43998;SDS011;51319;52.162;5.302;2023-09-08T11:42:08;6.43;;;3.10;;
43998;SDS011;51319;52.162;5.302;2023-09-08T11:44:37;4.38;;;2.70;;
43998;SDS011;51319;52.162;5.302;2023-09-08T11:47:08;3.30;;;2.67;;
43998;SDS011;51319;52.162;5.302;2023-09-08T11:49:37;6.97;;;2.60;;
43998;SDS011;51319;52.162;5.302;2023-09-08T11:52:06;4.38;;;2.67;;
43998;SDS011;51319;52.162;5.302;2023-09-08T11:54:34;2.65;;;2.42;;
43998;SDS011;51319;52.162;5.302;2023-09-08T11:57:12;3.80;;;2.63;;
43998;SDS011;51319;52.162;5.302;2023-09-08T11:59:42;5.93;;;3.08;;
43998;SDS011;51319;52.162;5.302;2023-09-08T12:02:11;4.03;;;2.75;;
43998;SDS011;51319;52.162;5.302;2023-09-08T12:04:38;4.70;;;3.08;;
43998;SDS011;51319;52.162;5.302;2023-09-08T12:07:11;7.35;;;2.80;;
43998;SDS011;51319;52.162;5.302;2023-09-08T12:09:43;3.60;;;2.67;;
43998;SDS011;51319;52.162;5.302;2023-09-08T12:12:12;4.30;;;2.60;;
43998;SDS011;51319;52.162;5.302;2023-09-08T12:14:43;7.07;;;2.57;;
43998;SDS011;51319;52.162;5.302;2023-09-08T12:17:13;10.02;;;2.63;;
43998;SDS011;51319;52.162;5.302;2023-09-08T12:19:44;6.90;;;2.65;;
43998;SDS011;51319;52.162;5.302;2023-09-08T12:22:11;6.88;;;2.42;;
43998;SDS011;51319;52.162;5.302;2023-09-08T12:24:48;6.13;;;2.72;;
43998;SDS011;51319;52.162;5.302;2023-09-08T12:27:26;5.97;;;2.47;;
43998;SDS011;51319;52.162;5.302;2023-09-08T12:32:24;6.03;;;2.53;;
43998;SDS011;51319;52.162;5.302;2023-09-08T12:34:52;8.75;;;6.80;;
43998;SDS011;51319;52.162;5.302;2023-09-08T12:37:21;8.30;;;3.50;;
43998;SDS011;51319;52.162;5.302;2023-09-08T12:39:49;4.68;;;2.83;;
43998;SDS011;51319;52.162;5.302;2023-09-08T12:42:17;4.60;;;2.35;;
43998;SDS011;51319;52.162;5.302;2023-09-08T12:44:45;4.72;;;2.90;;
43998;SDS011;51319;52.162;5.302;2023-09-08T12:47:19;5.35;;;2.45;;
43998;SDS011;51319;52.162;5.302;2023-09-08T12:49:46;7.05;;;2.40;;
43998;SDS011;51319;52.162;5.302;2023-09-08T12:52:13;5.22;;;2.15;;
43998;SDS011;51319;52.162;5.302;2023-09-08T12:54:40;4.75;;;3.20;;
43998;SDS011;51319;52.162;5.302;2023-09-08T12:57:07;12.93;;;6.93;;
43998;SDS011;51319;52.162;5.302;2023-09-08T13:02:07;3.17;;;2.20;;
43998;SDS011;51319;52.162;5.302;2023-09-08T13:04:34;7.47;;;4.07;;
43998;SDS011;51319;52.162;5.302;2023-09-08T13:07:01;9.57;;;2.38;;
43998;SDS011;51319;52.162;5.302;2023-09-08T13:11:58;5.82;;;2.63;;
43998;SDS011;51319;52.162;5.302;2023-09-08T13:14:25;5.20;;;3.72;;
43998;SDS011;51319;52.162;5.302;2023-09-08T13:16:51;7.25;;;2.80;;
43998;SDS011;51319;52.162;5.302;2023-09-08T13:19:18;5.28;;;3.35;;
43998;SDS011;51319;52.162;5.302;2023-09-08T13:21:45;4.97;;;2.80;;
43998;SDS011;51319;52.162;5.302;2023-09-08T13:24:12;7.40;;;2.83;;
43998;SDS011;51319;52.162;5.302;2023-09-08T13:26:39;10.93;;;1.98;;
43998;SDS011;51319;52.162;5.302;2023-09-08T13:29:07;10.55;;;2.67;;
43998;SDS011;51319;52.162;5.302;2023-09-08T13:31:34;3.80;;;2.22;;
43998;SDS011;51319;52.162;5.302;2023-09-08T13:34:01;5.47;;;2.35;;
43998;SDS011;51319;52.162;5.302;2023-09-08T13:36:28;5.90;;;2.60;;
43998;SDS011;51319;52.162;5.302;2023-09-08T13:38:55;2.70;;;2.20;;
43998;SDS011;51319;52.162;5.302;2023-09-08T13:41:23;2.60;;;2.40;;
43998;SDS011;51319;52.162;5.302;2023-09-08T13:43:50;7.20;;;2.28;;
43998;SDS011;51319;52.162;5.302;2023-09-08T13:46:17;3.92;;;2.50;;
43998;SDS011;51319;52.162;5.302;2023-09-08T13:48:44;3.92;;;2.75;;
43998;SDS011;51319;52.162;5.302;2023-09-08T13:51:14;3.97;;;2.30;;
43998;SDS011;51319;52.162;5.302;2023-09-08T13:53:43;5.28;;;2.63;;
43998;SDS011;51319;52.162;5.302;2023-09-08T13:56:13;4.95;;;2.90;;
43998;SDS011;51319;52.162;5.302;2023-09-08T13:58:42;4.60;;;2.25;;
43998;SDS011;51319;52.162;5.302;2023-09-08T14:01:16;4.03;;;2.50;;
43998;SDS011;51319;52.162;5.302;2023-09-08T14:03:45;6.75;;;2.67;;
43998;SDS011;51319;52.162;5.302;2023-09-08T14:06:15;2.67;;;2.28;;
43998;SDS011;51319;52.162;5.302;2023-09-08T14:08:50;3.67;;;2.90;;
43998;SDS011;51319;52.162;5.302;2023-09-08T14:11:21;3.08;;;2.75;;
43998;SDS011;51319;52.162;5.302;2023-09-08T14:13:57;3.55;;;2.80;;
43998;SDS011;51319;52.162;5.302;2023-09-08T14:16:25;5.82;;;2.75;;
43998;SDS011;51319;52.162;5.302;2023-09-08T14:18:52;8.88;;;2.95;;
43998;SDS011;51319;52.162;5.302;2023-09-08T14:21:19;5.57;;;2.88;;
43998;SDS011;51319;52.162;5.302;2023-09-08T14:23:47;9.52;;;2.92;;
43998;SDS011;51319;52.162;5.302;2023-09-08T14:26:14;8.63;;;2.90;;
43998;SDS011;51319;52.162;5.302;2023-09-08T14:28:42;4.60;;;2.53;;
43998;SDS011;51319;52.162;5.302;2023-09-08T14:31:09;10.95;;;3.15;;
43998;SDS011;51319;52.162;5.302;2023-09-08T14:33:36;5.10;;;3.10;;
43998;SDS011;51319;52.162;5.302;2023-09-08T14:36:04;7.43;;;3.17;;
43998;SDS011;51319;52.162;5.302;2023-09-08T14:38:31;7.40;;;2.85;;
43998;SDS011;51319;52.162;5.302;2023-09-08T14:40:59;7.97;;;3.35;;
43998;SDS011;51319;52.162;5.302;2023-09-08T14:43:28;3.95;;;3.30;;
43998;SDS011;51319;52.162;5.302;2023-09-08T14:45:57;8.43;;;3.47;;
43998;SDS011;51319;52.162;5.302;2023-09-08T14:48:24;4.72;;;3.10;;
43998;SDS011;51319;52.162;5.302;2023-09-08T14:50:52;5.15;;;3.10;;
43998;SDS011;51319;52.162;5.302;2023-09-08T14:53:20;5.07;;;4.05;;
43998;SDS011;51319;52.162;5.302;2023-09-08T14:55:47;8.80;;;3.22;;
43998;SDS011;51319;52.162;5.302;2023-09-08T14:58:15;4.93;;;3.33;;
43998;SDS011;51319;52.162;5.302;2023-09-08T15:00:44;7.57;;;3.75;;
43998;SDS011;51319;52.162;5.302;2023-09-08T15:03:12;11.18;;;3.92;;
43998;SDS011;51319;52.162;5.302;2023-09-08T15:05:39;6.03;;;3.38;;
43998;SDS011;51319;52.162;5.302;2023-09-08T15:08:07;7.97;;;3.72;;
43998;SDS011;51319;52.162;5.302;2023-09-08T15:10:34;4.10;;;3.22;;
43998;SDS011;51319;52.162;5.302;2023-09-08T15:13:01;8.02;;;3.35;;
43998;SDS011;51319;52.162;5.302;2023-09-08T15:15:28;7.68;;;3.58;;